createdAt,value
2023-02-02T00:02:09.962Z,101065.16
2023-02-02T00:04:39.822Z,101063.81
2023-02-02T00:07:10.340Z,101073.31
2023-02-02T00:09:39.611Z,101086.22
2023-02-02T00:12:08.100Z,101065.03
2023-02-02T00:14:38.470Z,101065.28
2023-02-02T00:17:12.426Z,101062.97
2023-02-02T00:19:41.440Z,101071.28
2023-02-02T00:22:10.960Z,101062.13
2023-02-02T00:24:42.428Z,101052.50
2023-02-02T00:27:12.014Z,101048.41
2023-02-02T00:29:41.411Z,101036.47
2023-02-02T00:32:10.164Z,101046.59
2023-02-02T00:34:39.228Z,101058.84
2023-02-02T00:37:07.536Z,101066.19
2023-02-02T00:39:37.162Z,101069.91
2023-02-02T00:42:07.134Z,101081.34
2023-02-02T00:44:54.698Z,101088.06
2023-02-02T00:47:23.637Z,101097.69
2023-02-02T00:49:53.653Z,101098.22
2023-02-02T00:52:22.902Z,101103.94
2023-02-02T00:54:51.963Z,101102.09
2023-02-02T00:57:22.298Z,101093.53
2023-02-02T00:59:51.398Z,101084.63
2023-02-02T01:02:22.276Z,101082.59
2023-02-02T01:04:51.552Z,101072.53
2023-02-02T01:07:21.341Z,101067.03
2023-02-02T01:09:51.621Z,101064.94
2023-02-02T01:12:23.851Z,101057.69
2023-02-02T01:14:53.715Z,101078.41
2023-02-02T01:17:31.938Z,101080.13
2023-02-02T01:20:02.153Z,101073.84
2023-02-02T01:22:31.644Z,101066.81
2023-02-02T01:25:03.064Z,101069.69
2023-02-02T01:27:35.656Z,101063.28
2023-02-02T01:30:05.760Z,101042.00
2023-02-02T01:32:34.953Z,101050.84
2023-02-02T01:35:03.585Z,101042.19
2023-02-02T01:37:34.005Z,101057.91
2023-02-02T01:40:03.188Z,101054.88
2023-02-02T01:42:31.922Z,101036.81
2023-02-02T01:45:07.807Z,101033.34
2023-02-02T01:47:43.811Z,101048.53
2023-02-02T01:50:15.367Z,101016.94
2023-02-02T01:52:50.427Z,101042.28
2023-02-02T01:55:21.940Z,101047.97
2023-02-02T01:57:59.472Z,101051.72
2023-02-02T02:00:29.976Z,101073.50
2023-02-02T02:03:03.304Z,101066.16
2023-02-02T02:05:37.694Z,101074.88
2023-02-02T02:08:18.792Z,101090.19
2023-02-02T02:10:49.680Z,101093.47
2023-02-02T02:13:21.801Z,101081.66
2023-02-02T02:16:19.862Z,101075.28
2023-02-02T02:19:14.863Z,101054.88
2023-02-02T02:22:06.537Z,101057.84
2023-02-02T02:25:35.307Z,101036.88
2023-02-02T02:28:36.014Z,101028.72
2023-02-02T02:31:17.597Z,101041.75
2023-02-02T02:34:01.620Z,101034.69
2023-02-02T02:36:38.890Z,101021.19
2023-02-02T02:39:36.549Z,101023.75
2023-02-02T02:42:10.778Z,101005.84
2023-02-02T02:44:41.284Z,101018.09
2023-02-02T02:47:11.156Z,101028.78
2023-02-02T02:49:46.960Z,101020.34
2023-02-02T02:52:18.366Z,101016.22
2023-02-02T02:54:54.962Z,101033.69
2023-02-02T02:57:33.208Z,101042.63
2023-02-02T03:00:23.958Z,101054.06
2023-02-02T03:03:12.853Z,101039.69
2023-02-02T03:06:22.835Z,101053.63
2023-02-02T03:09:02.182Z,101054.13
2023-02-02T03:11:31.152Z,101062.81
2023-02-02T03:14:03.789Z,101069.06
2023-02-02T03:16:32.199Z,101058.94
2023-02-02T03:19:01.819Z,101062.22
2023-02-02T03:21:31.694Z,101067.19
2023-02-02T03:24:03.404Z,101064.13
2023-02-02T03:26:32.455Z,101083.59
2023-02-02T03:29:02.771Z,101071.53
2023-02-02T03:31:33.107Z,101073.25
2023-02-02T03:34:02.967Z,101080.41
2023-02-02T03:36:32.133Z,101087.94
2023-02-02T03:39:02.810Z,101087.94
2023-02-02T03:41:32.128Z,101105.97
2023-02-02T03:44:04.706Z,101116.66
2023-02-02T03:46:34.429Z,101105.47
2023-02-02T03:49:11.552Z,101121.94
2023-02-02T03:51:45.225Z,101123.63
2023-02-02T03:54:15.505Z,101113.06
2023-02-02T03:56:44.066Z,101101.44
2023-02-02T03:59:28.217Z,101095.72
2023-02-02T04:01:58.659Z,101090.19
2023-02-02T04:04:28.338Z,101105.22
2023-02-02T04:07:08.659Z,101105.34
2023-02-02T04:09:44.434Z,101092.34
2023-02-02T04:12:23.993Z,101093.09
2023-02-02T04:15:01.670Z,101094.78
2023-02-02T04:17:38.732Z,101086.34
2023-02-02T04:20:19.508Z,101087.16
2023-02-02T04:22:55.406Z,101085.72
2023-02-02T04:25:25.786Z,101096.91
2023-02-02T04:27:56.125Z,101100.50
2023-02-02T04:30:28.898Z,101098.50
2023-02-02T04:33:01.544Z,101095.84
2023-02-02T04:35:31.368Z,101103.31
2023-02-02T04:38:01.456Z,101090.34
2023-02-02T04:40:31.423Z,101074.34
2023-02-02T04:43:01.713Z,101066.34
2023-02-02T04:45:31.417Z,101042.03
2023-02-02T04:48:02.037Z,101026.53
2023-02-02T04:50:31.585Z,101042.25
2023-02-02T04:53:02.860Z,101050.59
2023-02-02T04:55:32.097Z,101045.53
2023-02-02T04:58:01.680Z,101037.94
2023-02-02T05:00:31.209Z,101030.88
2023-02-02T05:03:01.932Z,101027.16
2023-02-02T05:05:31.521Z,101021.66
2023-02-02T05:08:01.734Z,101009.41
2023-02-02T05:10:31.891Z,101014.19
2023-02-02T05:13:01.491Z,101012.72
2023-02-02T05:15:30.702Z,101013.47
2023-02-02T05:18:01.618Z,101021.16
2023-02-02T05:20:31.274Z,101027.59
2023-02-02T05:23:01.344Z,101036.38
2023-02-02T05:25:32.062Z,101026.75
2023-02-02T05:28:02.877Z,101030.78
2023-02-02T05:30:33.645Z,101056.03
2023-02-02T05:33:03.306Z,101067.97
2023-02-02T05:35:33.019Z,101067.59
2023-02-02T05:38:02.239Z,101052.19
2023-02-02T05:40:31.148Z,101033.50
2023-02-02T05:43:04.101Z,101030.13
2023-02-02T05:45:34.376Z,101033.59
2023-02-02T05:48:03.451Z,101032.75
2023-02-02T05:50:32.481Z,101034.97
2023-02-02T05:53:06.658Z,101051.22
2023-02-02T05:55:36.356Z,101079.84
2023-02-02T05:58:06.059Z,101073.59
2023-02-02T06:00:35.913Z,101052.59
2023-02-02T06:03:06.842Z,101033.31
2023-02-02T06:05:36.039Z,101025.88
2023-02-02T06:08:04.263Z,100994.72
2023-02-02T06:11:11.356Z,101000.97
2023-02-02T06:13:40.247Z,101006.25
2023-02-02T06:16:35.676Z,101017.53
2023-02-02T06:19:05.997Z,101018.09
2023-02-02T06:21:44.350Z,101014.59
2023-02-02T06:24:16.160Z,101019.97
2023-02-02T06:26:47.159Z,101023.38
2023-02-02T06:29:16.382Z,101040.13
2023-02-02T06:31:46.670Z,101051.22
2023-02-02T06:34:15.912Z,101046.94
2023-02-02T06:36:46.316Z,101048.50
2023-02-02T06:39:15.555Z,101054.19
2023-02-02T06:41:47.473Z,101046.91
2023-02-02T06:44:16.287Z,101042.53
2023-02-02T06:46:46.033Z,101041.09
2023-02-02T06:49:15.492Z,101044.78
2023-02-02T06:51:45.990Z,101037.63
2023-02-02T06:54:15.760Z,101032.34
2023-02-02T06:56:44.026Z,101045.31
2023-02-02T06:59:14.371Z,101051.97
2023-02-02T07:01:43.258Z,101065.38
2023-02-02T07:04:13.000Z,101075.22
2023-02-02T07:06:42.606Z,101079.72
2023-02-02T07:09:11.593Z,101078.69
2023-02-02T07:11:43.676Z,101066.53
2023-02-02T07:14:15.446Z,101066.53
2023-02-02T07:16:43.892Z,101075.94
2023-02-02T07:19:13.440Z,101072.88
2023-02-02T07:21:42.943Z,101057.34
2023-02-02T07:24:12.151Z,101069.72
2023-02-02T07:26:41.776Z,101060.94
2023-02-02T07:29:15.433Z,101051.88
2023-02-02T07:31:45.548Z,101046.19
2023-02-02T07:34:15.319Z,101052.91
2023-02-02T07:36:44.280Z,101053.94
2023-02-02T07:39:14.303Z,101052.53
2023-02-02T07:41:47.757Z,101048.50
2023-02-02T07:44:30.752Z,101018.47
2023-02-02T07:47:01.527Z,101008.53
2023-02-02T07:49:31.463Z,100981.03
2023-02-02T07:52:01.891Z,100970.38
2023-02-02T07:54:33.778Z,100961.22
2023-02-02T07:57:03.969Z,100959.06
2023-02-02T07:59:35.398Z,100937.41
2023-02-02T08:02:05.566Z,100941.22
2023-02-02T08:04:35.700Z,100947.47
2023-02-02T08:07:07.083Z,100951.56
2023-02-02T08:09:36.846Z,100968.66
2023-02-02T08:12:06.916Z,100974.78
2023-02-02T08:14:36.579Z,100993.84
2023-02-02T08:17:07.397Z,101004.53
2023-02-02T08:19:36.696Z,101006.31
2023-02-02T08:22:06.183Z,100999.38
2023-02-02T08:24:35.380Z,101003.50
2023-02-02T08:27:04.659Z,100987.13
2023-02-02T08:29:35.575Z,100975.94
2023-02-02T08:32:06.059Z,100975.28
2023-02-02T08:34:39.069Z,100973.84
2023-02-02T08:37:08.317Z,100965.28
2023-02-02T08:39:40.205Z,100956.41
2023-02-02T08:42:09.909Z,100932.34
2023-02-02T08:45:59.673Z,100907.75
2023-02-02T08:47:32.125Z,100901.56
2023-02-02T08:50:01.875Z,100916.97
2023-02-02T08:52:31.751Z,100921.28
2023-02-02T08:55:01.556Z,100909.16
2023-02-02T08:57:34.327Z,100911.16
2023-02-02T09:00:03.612Z,100903.44
2023-02-02T09:02:32.305Z,100893.97
2023-02-02T09:05:02.065Z,100894.16
2023-02-02T09:07:32.282Z,100886.97
2023-02-02T09:10:01.873Z,100876.31
2023-02-02T09:12:31.703Z,100888.06
2023-02-02T09:15:01.861Z,100920.84
2023-02-02T09:17:34.010Z,100915.16
2023-02-02T09:20:05.531Z,100919.59
2023-02-02T09:22:34.697Z,100936.69
2023-02-02T09:25:04.949Z,100925.31
2023-02-02T09:27:41.908Z,100935.94
2023-02-02T09:30:11.299Z,100926.25
2023-02-02T09:32:42.348Z,100920.44
2023-02-02T09:35:11.222Z,100909.16
2023-02-02T09:37:41.006Z,100902.38
2023-02-02T09:40:18.767Z,100921.41
2023-02-02T09:42:49.944Z,100908.72
2023-02-02T09:45:49.689Z,100922.03
2023-02-02T09:48:28.695Z,100928.53
2023-02-02T09:51:03.837Z,100919.97
2023-02-02T09:53:36.489Z,100909.53
2023-02-02T09:56:09.683Z,100903.41
2023-02-02T09:58:49.762Z,100896.72
2023-02-02T10:01:24.097Z,100902.00
2023-02-02T10:04:10.044Z,100905.41
2023-02-02T10:07:03.855Z,100904.63
2023-02-02T10:09:51.779Z,100908.50
2023-02-02T10:12:35.523Z,100900.75
2023-02-02T10:15:38.158Z,100907.84
2023-02-02T10:18:31.185Z,100915.53
2023-02-02T10:21:07.889Z,100923.34
2023-02-02T10:23:40.774Z,100915.53
2023-02-02T10:26:35.785Z,100926.84
2023-02-02T10:29:24.335Z,100899.44
2023-02-02T10:32:23.756Z,100898.03
2023-02-02T10:35:18.157Z,100894.97
2023-02-02T10:37:51.350Z,100901.69
2023-02-02T10:40:32.194Z,100893.97
2023-02-02T10:43:45.872Z,100903.38
2023-02-02T10:46:26.234Z,100901.53
2023-02-02T10:49:22.333Z,100893.81
2023-02-02T10:52:03.696Z,100900.19
2023-02-02T10:54:57.357Z,100917.34
2023-02-02T10:57:39.865Z,100912.84
2023-02-02T11:00:37.696Z,100898.09
2023-02-02T11:03:08.354Z,100907.88
2023-02-02T11:05:56.689Z,100890.75
2023-02-02T11:08:33.682Z,100873.03
2023-02-02T11:11:31.995Z,100866.91
2023-02-02T11:14:11.070Z,100853.69
2023-02-02T11:16:44.090Z,100829.31
2023-02-02T11:19:20.603Z,100847.34
2023-02-02T11:22:01.939Z,100855.28
2023-02-02T11:24:46.119Z,100850.69
2023-02-02T11:27:22.051Z,100857.47
2023-02-02T11:29:55.245Z,100868.75
2023-02-02T11:32:34.015Z,100867.78
2023-02-02T11:35:22.403Z,100873.34
2023-02-02T11:38:09.902Z,100869.44
2023-02-02T11:41:04.626Z,100889.28
2023-02-02T11:43:41.839Z,100890.34
2023-02-02T11:46:35.027Z,100894.56
2023-02-02T11:49:17.635Z,100899.50
2023-02-02T11:52:06.738Z,100890.47
2023-02-02T11:54:39.162Z,100887.59
2023-02-02T11:57:17.719Z,100858.28
2023-02-02T11:59:47.553Z,100879.09
2023-02-02T12:02:30.444Z,100847.50
2023-02-02T12:05:12.452Z,100843.44
2023-02-02T12:07:46.117Z,100835.03
2023-02-02T12:10:21.334Z,100849.06
2023-02-02T12:13:11.632Z,100840.47
2023-02-02T12:15:51.496Z,100857.03
2023-02-02T12:18:35.971Z,100864.28
2023-02-02T12:21:31.752Z,100886.66
2023-02-02T12:24:28.364Z,100878.50
2023-02-02T12:27:17.682Z,100850.13
2023-02-02T12:30:18.794Z,100876.97
2023-02-02T12:33:19.148Z,100881.16
2023-02-02T12:35:58.187Z,100887.53
2023-02-02T12:38:46.138Z,100875.34
2023-02-02T12:41:40.043Z,100888.69
2023-02-02T12:44:28.344Z,100891.25
2023-02-02T12:47:04.667Z,100889.16
2023-02-02T12:49:48.260Z,100884.88
2023-02-02T12:52:39.292Z,100863.34
2023-02-02T12:55:41.624Z,100831.59
2023-02-02T12:58:30.078Z,100875.38
2023-02-02T13:01:23.873Z,100919.53
2023-02-02T13:04:15.332Z,100899.91
2023-02-02T13:06:55.280Z,100887.88
2023-02-02T13:09:51.644Z,100893.28
2023-02-02T13:12:26.700Z,100911.47
2023-02-02T13:15:01.995Z,100912.91
2023-02-02T13:17:40.264Z,100892.94
2023-02-02T13:20:41.985Z,100912.31
2023-02-02T13:23:56.391Z,100932.16
2023-02-02T13:26:40.043Z,100940.47
2023-02-02T13:29:32.292Z,100920.25
2023-02-02T13:32:16.992Z,100911.00
2023-02-02T13:34:59.479Z,100911.97
2023-02-02T13:37:42.356Z,100899.09
2023-02-02T13:40:33.975Z,100883.69
2023-02-02T13:43:26.001Z,100887.06
2023-02-02T13:46:12.925Z,100890.53
2023-02-02T13:49:19.583Z,100880.66
2023-02-02T13:51:58.776Z,100873.09
2023-02-02T13:55:01.344Z,100862.75
2023-02-02T14:00:49.961Z,100857.06
2023-02-02T14:03:30.836Z,100846.34
2023-02-02T14:06:22.446Z,100857.16
2023-02-02T14:09:01.736Z,100862.81
2023-02-02T14:11:39.623Z,100887.53
2023-02-02T14:14:35.379Z,100895.22
2023-02-02T14:17:30.043Z,100914.00
2023-02-02T14:20:03.996Z,100905.56
2023-02-02T14:22:55.463Z,100890.03
2023-02-02T14:25:54.171Z,100881.53
2023-02-02T14:28:48.391Z,100884.78
2023-02-02T14:31:46.349Z,100901.66
2023-02-02T14:34:38.175Z,100913.44
2023-02-02T14:37:31.916Z,100915.00
2023-02-02T14:40:10.465Z,100922.47
2023-02-02T14:43:28.786Z,100923.41
2023-02-02T14:46:43.495Z,100910.53
2023-02-02T14:49:18.249Z,100909.44
2023-02-02T14:52:02.803Z,100906.69
2023-02-02T14:54:39.762Z,100883.78
2023-02-02T14:57:24.742Z,100865.25
2023-02-02T15:00:02.216Z,100863.91
2023-02-02T15:02:36.507Z,100864.50
2023-02-02T15:05:37.629Z,100870.88
2023-02-02T15:08:31.726Z,100873.72
2023-02-02T15:11:28.284Z,100870.88
2023-02-02T15:14:08.225Z,100859.91
2023-02-02T15:16:41.496Z,100872.59
2023-02-02T15:19:23.802Z,100886.78
2023-02-02T15:22:01.996Z,100888.16
2023-02-02T15:24:33.458Z,100864.59
2023-02-02T15:27:06.665Z,100832.72
2023-02-02T15:29:46.263Z,100814.13
2023-02-02T15:32:23.416Z,100817.75
2023-02-02T15:35:06.548Z,100821.97
2023-02-02T15:37:43.276Z,100819.19
2023-02-02T15:40:21.567Z,100820.16
2023-02-02T15:43:10.398Z,100817.50
2023-02-02T15:45:44.299Z,100809.28
2023-02-02T15:48:36.690Z,100814.88
2023-02-02T15:51:17.835Z,100814.00
2023-02-02T15:53:50.638Z,100808.03
2023-02-02T15:56:32.397Z,100807.88
2023-02-02T15:59:02.639Z,100800.28
2023-02-02T16:01:36.742Z,100784.78
2023-02-02T16:04:09.117Z,100779.47
2023-02-02T16:06:42.825Z,100759.59
2023-02-02T16:09:26.581Z,100758.31
2023-02-02T16:11:59.693Z,100743.59
2023-02-02T16:14:37.256Z,100737.38
2023-02-02T16:17:14.752Z,100737.53
2023-02-02T16:19:46.126Z,100728.56
2023-02-02T16:22:27.011Z,100718.81
2023-02-02T16:25:04.200Z,100707.94
2023-02-02T16:27:36.015Z,100698.50
2023-02-02T16:30:09.490Z,100695.66
2023-02-02T16:32:43.508Z,100688.53
2023-02-02T16:35:33.599Z,100685.22
2023-02-02T16:38:16.660Z,100677.56
2023-02-02T16:40:46.281Z,100665.59
2023-02-02T16:43:20.518Z,100666.66
2023-02-02T16:46:05.298Z,100659.63
2023-02-02T16:48:40.401Z,100649.75
2023-02-02T16:51:19.428Z,100655.59
2023-02-02T16:53:59.967Z,100648.03
2023-02-02T16:56:30.112Z,100645.88
2023-02-02T16:59:03.019Z,100641.75
2023-02-02T17:01:47.231Z,100626.44
2023-02-02T17:04:30.800Z,100619.84
2023-02-02T17:07:15.461Z,100608.94
2023-02-02T17:09:47.175Z,100600.56
2023-02-02T17:12:32.569Z,100596.88
2023-02-02T17:15:50.351Z,100601.38
2023-02-02T17:18:19.037Z,100588.91
2023-02-02T17:20:55.507Z,100563.19
2023-02-02T17:23:31.217Z,100579.16
2023-02-02T17:26:01.933Z,100573.59
2023-02-02T17:28:32.116Z,100553.56
2023-02-02T17:31:08.913Z,100541.22
2023-02-02T17:33:39.998Z,100540.88
2023-02-02T17:36:13.362Z,100539.16
2023-02-02T17:38:42.609Z,100545.63
2023-02-02T17:41:15.499Z,100544.81
2023-02-02T17:43:46.157Z,100545.97
2023-02-02T17:46:15.839Z,100518.19
2023-02-02T17:48:44.509Z,100502.19
2023-02-02T17:51:17.986Z,100497.00
2023-02-02T17:53:47.991Z,100476.59
2023-02-02T17:56:16.469Z,100462.44
2023-02-02T17:58:46.355Z,100454.31
2023-02-02T18:01:15.738Z,100443.53
2023-02-02T18:03:48.209Z,100441.72
2023-02-02T18:06:18.329Z,100427.28
2023-02-02T18:08:47.827Z,100413.97
2023-02-02T18:11:17.655Z,100404.47
2023-02-02T18:13:46.799Z,100402.47
2023-02-02T18:16:15.846Z,100388.63
2023-02-02T18:18:44.518Z,100392.50
2023-02-02T18:21:15.355Z,100390.34
2023-02-02T18:23:44.318Z,100381.34
2023-02-02T18:26:20.284Z,100369.50
2023-02-02T18:28:51.901Z,100363.00
2023-02-02T18:31:23.607Z,100358.50
2023-02-02T18:33:52.670Z,100347.59
2023-02-02T18:36:24.055Z,100345.59
2023-02-02T18:38:54.786Z,100346.59
2023-02-02T18:41:23.658Z,100335.22
2023-02-02T18:43:55.624Z,100333.56
2023-02-02T18:46:24.050Z,100332.91
2023-02-02T18:48:56.228Z,100328.41
2023-02-02T18:51:28.202Z,100346.25
2023-02-02T18:54:01.489Z,100332.94
2023-02-02T18:56:31.433Z,100326.91
2023-02-02T18:59:01.770Z,100329.56
2023-02-02T19:01:31.715Z,100328.59
2023-02-02T19:04:02.452Z,100308.59
2023-02-02T19:06:51.083Z,100302.44
2023-02-02T19:09:22.982Z,100318.09
2023-02-02T19:11:55.314Z,100326.94
2023-02-02T19:14:27.774Z,100307.13
2023-02-02T19:17:08.018Z,100297.28
2023-02-02T19:19:36.419Z,100285.56
2023-02-02T19:22:16.591Z,100267.53
2023-02-02T19:24:46.191Z,100267.88
2023-02-02T19:27:24.061Z,100262.06
2023-02-02T19:30:00.994Z,100265.59
2023-02-02T19:32:34.424Z,100264.88
2023-02-02T19:35:05.026Z,100255.03
2023-02-02T19:37:41.982Z,100243.50
2023-02-02T19:40:16.424Z,100245.00
2023-02-02T19:42:52.585Z,100234.97
2023-02-02T19:45:26.737Z,100224.28
2023-02-02T19:47:59.344Z,100232.44
2023-02-02T19:50:37.823Z,100224.09
2023-02-02T19:53:22.310Z,100203.41
2023-02-02T19:55:52.961Z,100204.16
2023-02-02T19:58:32.647Z,100201.22
2023-02-02T20:01:09.107Z,100180.03
2023-02-02T20:03:46.247Z,100176.03
2023-02-02T20:06:43.095Z,100164.25
2023-02-02T20:09:21.118Z,100159.78
2023-02-02T20:11:54.851Z,100165.19
2023-02-02T20:14:31.431Z,100166.88
2023-02-02T20:17:11.632Z,100175.41
2023-02-02T20:19:42.998Z,100166.25
2023-02-02T20:22:44.586Z,100159.72
2023-02-02T20:25:16.395Z,100162.50
2023-02-02T20:27:47.362Z,100176.25
2023-02-02T20:30:29.941Z,100199.81
2023-02-02T20:33:03.577Z,100211.88
2023-02-02T20:35:43.705Z,100210.88
2023-02-02T20:38:40.501Z,100197.44
2023-02-02T20:41:10.468Z,100199.56
2023-02-02T20:43:39.606Z,100194.94
2023-02-02T20:46:08.195Z,100194.44
2023-02-02T20:48:37.372Z,100196.63
2023-02-02T20:51:06.608Z,100201.78
2023-02-02T20:53:36.234Z,100202.97
2023-02-02T20:56:05.476Z,100200.63
2023-02-02T20:58:35.329Z,100190.81
2023-02-02T21:01:06.448Z,100199.78
2023-02-02T21:03:36.638Z,100184.59
2023-02-02T21:06:06.232Z,100177.59
2023-02-02T21:08:35.285Z,100161.25
2023-02-02T21:11:04.514Z,100160.59
2023-02-02T21:13:34.157Z,100158.94
2023-02-02T21:16:03.198Z,100146.59
2023-02-02T21:18:32.693Z,100144.94
2023-02-02T21:21:02.517Z,100150.28
2023-02-02T21:23:32.167Z,100147.09
2023-02-02T21:26:02.071Z,100148.44
2023-02-02T21:28:31.174Z,100137.22
2023-02-02T21:31:01.551Z,100124.91
2023-02-02T21:33:31.071Z,100124.75
2023-02-02T21:36:03.798Z,100130.75
2023-02-02T21:38:32.927Z,100141.56
2023-02-02T21:41:02.984Z,100131.66
2023-02-02T21:43:34.086Z,100129.75
2023-02-02T21:46:03.417Z,100113.59
2023-02-02T21:48:38.026Z,100108.75
2023-02-02T21:51:35.736Z,100118.22
2023-02-02T21:54:34.466Z,100143.91
2023-02-02T21:57:07.880Z,100138.06
2023-02-02T21:59:38.450Z,100137.09
2023-02-02T22:02:38.304Z,100131.44
2023-02-02T22:05:19.314Z,100131.25
2023-02-02T22:07:54.371Z,100124.97
2023-02-02T22:10:44.431Z,100115.13
2023-02-02T22:13:24.266Z,100098.31
2023-02-02T22:15:54.552Z,100103.31
2023-02-02T22:18:26.515Z,100106.22
2023-02-02T22:21:00.130Z,100102.72
2023-02-02T22:23:32.712Z,100106.53
2023-02-02T22:26:03.893Z,100097.38
2023-02-02T22:28:41.380Z,100094.53
2023-02-02T22:31:12.064Z,100086.72
2023-02-02T22:33:43.034Z,100078.06
2023-02-02T22:36:14.934Z,100082.38
2023-02-02T22:38:44.959Z,100083.72
2023-02-02T22:41:16.073Z,100090.06
2023-02-02T22:43:47.169Z,100092.06
2023-02-02T22:46:16.148Z,100090.94
2023-02-02T22:48:46.954Z,100094.75
2023-02-02T22:51:18.232Z,100091.91
2023-02-02T22:53:48.074Z,100083.25
2023-02-02T22:56:18.276Z,100087.09
2023-02-02T22:58:48.596Z,100088.75
2023-02-02T23:01:19.654Z,100081.09
2023-02-02T23:03:51.201Z,100073.28
2023-02-02T23:06:20.318Z,100076.09
2023-02-02T23:08:50.690Z,100077.78
2023-02-02T23:11:20.484Z,100062.13
2023-02-02T23:13:51.746Z,100067.94
2023-02-02T23:16:22.240Z,100069.47
2023-02-02T23:18:53.980Z,100062.66
2023-02-02T23:21:24.556Z,100065.84
2023-02-02T23:23:56.483Z,100055.66
2023-02-02T23:26:32.024Z,100041.34
2023-02-02T23:29:06.973Z,100050.00
2023-02-02T23:31:36.645Z,100047.19
2023-02-02T23:34:09.062Z,100030.53
2023-02-02T23:36:42.363Z,100026.03
2023-02-02T23:39:13.877Z,100029.84
2023-02-02T23:41:46.362Z,100034.03
2023-02-02T23:44:19.103Z,100025.19
2023-02-02T23:46:49.920Z,100017.06
2023-02-02T23:49:20.359Z,100026.03
2023-02-02T23:51:52.180Z,100024.53
2023-02-02T23:54:21.821Z,100025.19
2023-02-02T23:56:52.458Z,100019.88
2023-02-02T23:59:24.371Z,100023.69
